Time;durP1;ratioP1;P1;durP2;ratioP2;P2;SDS_P1;SDS_P2;PMS_P1;PMS_P2;Temp;Humidity;BMP_temperature;BMP_pressure;BME280_temperature;BME280_humidity;BME280_pressure;Samples;Min_cycle;Max_cycle;Signal;HPM_P1;HPM_P2
2023/01/27 00:01:39;;;;;;;8.20;2.95;;;7.80;73.90;;;;;;5090847;28;20035;-68
2023/01/27 00:04:05;;;;;;;10.20;2.50;;;7.80;73.90;;;;;;5101830;28;20028;-68
2023/01/27 00:06:34;;;;;;;8.70;2.78;;;7.70;73.80;;;;;;5113334;28;20082;-69
2023/01/27 00:08:59;;;;;;;8.40;2.67;;;7.70;73.80;;;;;;5099950;28;20240;-69
2023/01/27 00:14:09;;;;;;;8.50;3.20;;;7.80;74.40;;;;;;5113096;28;20114;-69
2023/01/27 00:16:35;;;;;;;10.40;3.47;;;7.70;73.70;;;;;;5093953;28;20114;-69
2023/01/27 00:19:01;;;;;;;8.88;2.53;;;7.70;73.70;;;;;;5094576;28;20078;-67
2023/01/27 00:26:58;;;;;;;8.60;2.20;;;7.70;73.60;;;;;;5108717;28;20023;-69
2023/01/27 00:29:23;;;;;;;9.43;3.20;;;7.70;73.60;;;;;;5106980;28;20024;-68
2023/01/27 00:34:35;;;;;;;7.55;2.38;;;7.70;73.50;;;;;;5117623;28;20516;-68
2023/01/27 00:37:00;;;;;;;9.10;3.15;;;7.70;73.40;;;;;;5116318;28;20126;-68
2023/01/27 00:39:26;;;;;;;8.45;2.78;;;7.70;73.40;;;;;;5118318;28;20081;-69
2023/01/27 00:41:52;;;;;;;6.90;2.50;;;7.70;73.40;;;;;;5107751;28;20433;-69
2023/01/27 00:44:18;;;;;;;7.43;2.50;;;7.70;73.30;;;;;;5117640;28;20161;-69
2023/01/27 00:46:43;;;;;;;7.63;3.30;;;7.70;73.30;;;;;;5095284;28;20047;-69
2023/01/27 00:49:12;;;;;;;8.13;2.75;;;7.60;73.20;;;;;;5088668;28;20375;-69
2023/01/27 00:51:38;;;;;;;8.30;2.47;;;7.60;73.20;;;;;;5107458;28;20085;-69
2023/01/27 00:54:04;;;;;;;8.73;3.00;;;7.60;73.20;;;;;;5117706;28;20110;-69
2023/01/27 00:56:30;;;;;;;9.35;3.08;;;7.60;73.20;;;;;;5115825;28;20019;-69
2023/01/27 00:58:55;;;;;;;9.38;2.78;;;7.60;73.20;;;;;;5108381;28;20073;-68
2023/01/27 01:01:21;;;;;;;9.00;2.92;;;7.60;73.20;;;;;;5114618;28;20076;-69
2023/01/27 01:03:47;;;;;;;13.45;3.30;;;7.60;73.20;;;;;;5116400;28;20023;-69
2023/01/27 01:06:15;;;;;;;10.43;3.33;;;7.60;73.20;;;;;;5116650;28;20107;-69
2023/01/27 01:08:42;;;;;;;9.45;3.42;;;7.60;73.30;;;;;;5116029;28;20087;-68
2023/01/27 01:11:12;;;;;;;10.60;3.28;;;7.60;73.30;;;;;;5113757;28;20038;-68
2023/01/27 01:13:38;;;;;;;7.72;3.30;;;7.60;73.30;;;;;;5115964;28;20019;-68
2023/01/27 01:16:14;;;;;;;9.03;3.70;;;7.60;73.30;;;;;;5116598;28;20463;-69
2023/01/27 01:18:42;;;;;;;9.82;2.90;;;7.50;73.10;;;;;;5111772;28;20038;-69
2023/01/27 01:21:08;;;;;;;8.27;3.57;;;7.50;73.20;;;;;;5117170;28;20050;-68
2023/01/27 01:23:42;;;;;;;11.25;3.90;;;7.50;73.10;;;;;;5087802;28;20161;-69
2023/01/27 01:26:13;;;;;;;8.52;3.50;;;7.50;73.10;;;;;;5113270;28;20112;-69
2023/01/27 01:28:39;;;;;;;7.03;3.50;;;7.50;73.10;;;;;;5116765;28;20451;-69
2023/01/27 01:31:11;;;;;;;8.02;3.30;;;7.50;73.10;;;;;;5115178;28;20471;-68
2023/01/27 01:33:37;;;;;;;;;;;7.50;73.10;;;;;;5097299;28;20516;-68
2023/01/27 01:36:08;;;;;;;9.15;3.05;;;7.50;73.10;;;;;;5113022;28;19990;-68
2023/01/27 01:38:35;;;;;;;6.13;3.05;;;7.40;73.10;;;;;;5112331;28;20028;-69
2023/01/27 01:41:01;;;;;;;12.87;4.30;;;7.40;73.10;;;;;;5115698;28;20036;-68
2023/01/27 01:43:27;;;;;;;7.23;3.27;;;7.40;73.10;;;;;;5113806;27;20119;-68
2023/01/27 01:45:58;;;;;;;10.27;4.18;;;7.40;73.10;;;;;;5115547;28;20039;-69
2023/01/27 01:48:30;;;;;;;10.00;4.33;;;7.40;73.10;;;;;;5114002;28;20102;-68
2023/01/27 01:50:58;;;;;;;9.40;4.70;;;7.50;73.10;;;;;;5115485;28;20459;-69
2023/01/27 01:53:30;;;;;;;12.80;4.88;;;7.40;73.10;;;;;;5113577;28;20441;-68
2023/01/27 01:56:04;;;;;;;8.87;4.07;;;7.40;73.00;;;;;;5116560;28;20033;-69
2023/01/27 01:58:30;;;;;;;9.38;4.30;;;7.50;73.10;;;;;;5112721;27;20425;-69
2023/01/27 02:00:56;;;;;;;8.30;3.87;;;7.40;73.00;;;;;;5098382;28;20027;-68
2023/01/27 02:03:25;;;;;;;12.00;4.80;;;7.40;73.00;;;;;;5112831;28;20028;-69
2023/01/27 02:05:53;;;;;;;11.97;4.27;;;7.40;73.00;;;;;;5129670;27;20105;-68
2023/01/27 02:08:28;;;;;;;12.05;4.15;;;7.40;73.00;;;;;;5114267;28;20016;-68
2023/01/27 02:10:54;;;;;;;10.05;3.95;;;7.40;73.00;;;;;;5114536;28;20019;-69
2023/01/27 02:13:21;;;;;;;13.50;5.28;;;7.40;73.10;;;;;;5113629;28;20034;-69
2023/01/27 02:15:47;;;;;;;13.27;4.90;;;7.40;73.10;;;;;;5111023;28;20035;-69
2023/01/27 02:18:13;;;;;;;10.23;4.93;;;7.40;73.10;;;;;;5112881;28;20495;-68
2023/01/27 02:20:44;;;;;;;12.43;4.60;;;7.40;73.20;;;;;;5114069;28;20032;-69
2023/01/27 02:23:31;;;;;;;13.07;4.95;;;7.40;73.20;;;;;;5107419;28;20024;-68
2023/01/27 02:26:18;;;;;;;11.65;4.53;;;7.40;73.20;;;;;;5097055;28;20112;-68
2023/01/27 02:28:44;;;;;;;12.27;4.83;;;7.40;73.20;;;;;;5107665;28;20388;-68
2023/01/27 02:31:10;;;;;;;12.93;5.45;;;7.40;73.90;;;;;;5097579;28;20066;-68
2023/01/27 02:33:35;;;;;;;15.13;5.67;;;7.40;73.40;;;;;;5106495;28;20055;-68
2023/01/27 02:36:07;;;;;;;13.07;5.07;;;7.40;73.40;;;;;;5113189;28;20034;-68
2023/01/27 02:38:38;;;;;;;13.52;5.30;;;7.40;73.50;;;;;;5109532;28;20110;-68
2023/01/27 02:41:18;;;;;;;12.55;5.93;;;7.40;73.50;;;;;;5110355;28;20020;-68
2023/01/27 02:43:47;;;;;;;14.30;6.63;;;7.40;73.60;;;;;;5104182;28;20036;-68
2023/01/27 02:46:13;;;;;;;13.50;6.37;;;7.40;73.60;;;;;;5109723;28;20280;-68
2023/01/27 02:48:39;;;;;;;14.95;7.05;;;7.40;73.60;;;;;;5103271;28;20448;-68
2023/01/27 02:51:05;;;;;;;13.33;6.77;;;7.40;73.70;;;;;;5112054;28;20087;-66
2023/01/27 02:53:33;;;;;;;12.80;7.10;;;7.40;73.70;;;;;;5112832;28;20122;-67
2023/01/27 02:55:59;;;;;;;18.20;7.73;;;7.40;73.80;;;;;;5112803;28;20111;-67
2023/01/27 02:58:25;;;;;;;13.97;7.10;;;7.40;73.80;;;;;;5113784;28;20440;-67
2023/01/27 03:00:56;;;;;;;14.37;7.17;;;7.40;73.80;;;;;;5109918;28;20034;-67
2023/01/27 03:03:21;;;;;;;12.88;6.75;;;7.30;73.80;;;;;;5114118;28;20356;-67
2023/01/27 03:05:49;;;;;;;13.43;6.72;;;7.40;73.80;;;;;;5111501;28;20028;-68
2023/01/27 03:08:16;;;;;;;14.93;7.83;;;7.30;73.80;;;;;;5094303;28;20027;-67
2023/01/27 03:10:42;;;;;;;14.13;8.00;;;7.30;74.00;;;;;;5095126;28;20072;-67
2023/01/27 03:13:08;;;;;;;15.57;7.43;;;7.30;74.00;;;;;;5114086;28;20352;-67
2023/01/27 03:18:22;;;;;;;16.57;8.70;;;7.30;74.20;;;;;;5112962;28;20032;-68
2023/01/27 03:20:49;;;;;;;15.80;8.57;;;7.30;74.20;;;;;;5113532;28;20024;-67
2023/01/27 03:23:17;;;;;;;16.73;8.30;;;7.30;74.30;;;;;;5113945;28;20066;-68
2023/01/27 03:25:47;;;;;;;15.97;8.33;;;7.30;74.20;;;;;;5088537;28;20468;-67
2023/01/27 03:28:14;;;;;;;16.57;8.80;;;7.30;74.20;;;;;;5093468;28;20039;-67
2023/01/27 03:30:57;;;;;;;15.73;8.00;;;7.30;74.20;;;;;;5106214;28;20053;-67
2023/01/27 03:33:30;;;;;;;14.77;8.67;;;7.20;74.10;;;;;;5114123;28;20031;-67
2023/01/27 03:47:03;;;;;;;15.03;7.67;;;7.20;73.80;;;;;;5101190;28;20334;-68
2023/01/27 03:49:29;;;;;;;12.45;6.78;;;7.20;73.80;;;;;;5094448;28;20043;-68
2023/01/27 03:51:55;;;;;;;12.43;6.83;;;7.20;73.70;;;;;;5108748;28;20086;-68
2023/01/27 03:54:21;;;;;;;11.37;6.07;;;7.20;73.60;;;;;;5108093;28;20429;-68
2023/01/27 03:56:47;;;;;;;12.63;6.57;;;7.20;73.70;;;;;;5100770;28;20084;-67
2023/01/27 03:59:14;;;;;;;12.00;6.63;;;7.20;73.60;;;;;;5096876;28;20020;-66
2023/01/27 04:01:39;;;;;;;12.47;6.90;;;7.10;74.10;;;;;;5112116;28;20512;-68
2023/01/27 04:07:02;;;;;;;12.47;6.90;;;7.20;73.50;;;;;;5110565;28;20021;-68
2023/01/27 04:09:33;;;;;;;13.40;6.50;;;7.20;73.60;;;;;;5113499;28;20025;-68
2023/01/27 04:12:03;;;;;;;11.30;6.15;;;7.20;73.30;;;;;;5114419;28;20032;-68
2023/01/27 04:14:34;;;;;;;9.23;5.37;;;7.20;73.10;;;;;;5122879;27;20030;-67
2023/01/27 04:17:03;;;;;;;9.95;5.57;;;7.20;73.00;;;;;;5098922;28;20122;-67
2023/01/27 04:19:29;;;;;;;9.73;5.53;;;7.20;72.90;;;;;;5113585;28;20026;-67
2023/01/27 04:21:56;;;;;;;10.17;5.37;;;7.20;72.90;;;;;;5117207;27;20020;-68
2023/01/27 04:24:23;;;;;;;10.00;5.73;;;7.20;72.80;;;;;;5117140;28;20329;-68
2023/01/27 04:26:53;;;;;;;9.63;5.13;;;7.20;72.70;;;;;;5115374;28;20051;-68
2023/01/27 04:29:19;;;;;;;8.98;4.82;;;7.30;72.70;;;;;;5114770;28;20049;-68
2023/01/27 04:31:45;;;;;;;9.45;5.15;;;7.30;72.60;;;;;;5116936;27;20012;-67
2023/01/27 04:34:11;;;;;;;8.90;5.38;;;7.30;72.60;;;;;;5116839;28;20035;-68
2023/01/27 04:36:38;;;;;;;11.03;5.17;;;7.30;72.60;;;;;;5116199;28;20031;-67
2023/01/27 04:39:04;;;;;;;9.60;5.00;;;7.30;72.50;;;;;;5117071;28;20020;-67
2023/01/27 04:41:32;;;;;;;10.07;5.33;;;7.30;72.50;;;;;;5115204;28;20094;-68
2023/01/27 04:43:58;;;;;;;10.23;5.60;;;7.30;72.50;;;;;;5113969;28;20421;-67
2023/01/27 04:46:24;;;;;;;9.43;5.47;;;7.30;72.50;;;;;;5115344;28;20024;-68
2023/01/27 04:48:49;;;;;;;9.63;5.37;;;7.30;72.50;;;;;;5098315;28;20030;-67
2023/01/27 04:51:15;;;;;;;10.63;5.63;;;7.30;72.50;;;;;;5115086;28;20452;-67
2023/01/27 04:53:42;;;;;;;8.90;5.28;;;7.30;72.50;;;;;;5096390;27;20032;-67
2023/01/27 04:56:29;;;;;;;8.83;4.90;;;7.30;72.60;;;;;;5116236;28;20041;-67
2023/01/27 04:59:00;;;;;;;9.45;5.28;;;7.30;72.50;;;;;;5114938;28;20115;-67
2023/01/27 05:01:27;;;;;;;8.23;4.50;;;7.30;72.60;;;;;;5113821;28;20051;-67
2023/01/27 05:03:53;;;;;;;11.13;5.40;;;7.30;72.60;;;;;;5114528;28;20114;-67
2023/01/27 05:06:18;;;;;;;9.93;5.23;;;7.30;72.70;;;;;;5098184;28;20332;-68
2023/01/27 05:08:44;;;;;;;8.70;4.45;;;7.30;72.60;;;;;;5115824;28;20030;-67
2023/01/27 05:11:11;;;;;;;9.50;4.80;;;7.30;72.60;;;;;;5114145;28;20070;-67
2023/01/27 05:13:37;;;;;;;7.77;4.23;;;7.30;72.50;;;;;;5115299;28;20031;-67
2023/01/27 05:16:14;;;;;;;9.37;4.27;;;7.30;72.40;;;;;;5097261;28;20023;-67
2023/01/27 05:18:41;;;;;;;9.17;4.27;;;7.30;72.30;;;;;;5115254;28;20043;-67
2023/01/27 05:21:12;;;;;;;8.37;4.17;;;7.30;72.30;;;;;;5114206;28;20444;-67
2023/01/27 05:23:37;;;;;;;7.72;4.05;;;7.40;72.30;;;;;;5115839;28;20030;-67
2023/01/27 05:26:12;;;;;;;7.85;4.13;;;7.30;72.20;;;;;;5119039;27;20435;-67
2023/01/27 05:28:41;;;;;;;8.07;4.17;;;7.30;72.10;;;;;;5112009;28;20061;-68
2023/01/27 05:31:17;;;;;;;7.55;3.92;;;7.30;72.10;;;;;;5114782;28;20028;-67
2023/01/27 05:33:44;;;;;;;8.03;3.80;;;7.30;72.20;;;;;;5114865;28;20046;-67
2023/01/27 05:36:12;;;;;;;7.80;4.13;;;7.30;72.00;;;;;;5113962;28;20015;-67
2023/01/27 05:38:38;;;;;;;7.90;3.63;;;7.30;71.90;;;;;;5115201;27;20019;-67
2023/01/27 05:41:06;;;;;;;9.57;4.27;;;7.30;71.90;;;;;;5098750;28;20016;-68
2023/01/27 05:43:35;;;;;;;7.97;3.30;;;7.40;71.90;;;;;;5114355;28;20055;-68
2023/01/27 05:46:10;;;;;;;8.60;3.80;;;7.40;71.90;;;;;;5112873;28;20096;-67
2023/01/27 05:48:39;;;;;;;7.70;3.87;;;7.40;71.80;;;;;;5111768;28;20404;-67
2023/01/27 05:51:06;;;;;;;7.53;3.77;;;7.40;71.80;;;;;;5115020;28;20011;-68
2023/01/27 05:53:33;;;;;;;7.50;3.83;;;7.40;71.80;;;;;;5114220;28;20020;-66
2023/01/27 05:55:59;;;;;;;8.20;3.85;;;7.40;71.80;;;;;;5114935;28;20031;-67
2023/01/27 05:58:25;;;;;;;7.50;3.93;;;7.40;71.80;;;;;;5114701;28;20027;-67
2023/01/27 06:00:54;;;;;;;7.90;3.97;;;7.40;71.90;;;;;;5110610;28;21444;-68
2023/01/27 06:03:20;;;;;;;6.82;3.83;;;7.40;71.90;;;;;;5097185;28;20027;-67
2023/01/27 06:05:50;;;;;;;7.00;3.70;;;7.40;71.90;;;;;;5110606;28;20062;-66
2023/01/27 06:08:16;;;;;;;8.07;4.13;;;7.40;72.00;;;;;;5107966;28;20100;-67
2023/01/27 06:10:41;;;;;;;8.13;3.97;;;7.40;72.00;;;;;;5112551;28;20024;-68
2023/01/27 06:13:07;;;;;;;7.37;3.97;;;7.40;72.00;;;;;;5113614;28;20038;-68
2023/01/27 06:15:33;;;;;;;7.60;3.90;;;7.30;72.00;;;;;;5095274;28;20028;-68
2023/01/27 06:17:59;;;;;;;7.73;3.87;;;7.30;72.00;;;;;;5095348;28;20360;-68
2023/01/27 06:20:24;;;;;;;8.23;3.70;;;7.30;72.00;;;;;;5097879;28;20039;-68
2023/01/27 06:22:50;;;;;;;8.63;3.90;;;7.30;72.00;;;;;;5114907;28;20027;-68
2023/01/27 06:25:16;;;;;;;7.07;3.70;;;7.30;72.00;;;;;;5113450;28;20434;-67
2023/01/27 06:27:43;;;;;;;8.90;4.13;;;7.30;72.00;;;;;;5114704;28;20395;-68
2023/01/27 06:30:09;;;;;;;8.00;4.27;;;7.30;72.00;;;;;;5097815;28;20348;-68
2023/01/27 06:32:35;;;;;;;8.23;4.13;;;7.30;72.00;;;;;;5099372;28;20365;-67
2023/01/27 06:35:01;;;;;;;6.18;3.40;;;7.30;72.00;;;;;;5095423;28;20116;-67
2023/01/27 06:37:28;;;;;;;7.07;3.47;;;7.30;72.10;;;;;;5110663;28;20039;-69
2023/01/27 06:39:54;;;;;;;7.07;3.60;;;7.30;72.10;;;;;;5113361;28;20039;-68
2023/01/27 06:42:21;;;;;;;7.40;3.60;;;7.30;72.10;;;;;;5114201;28;20032;-68
2023/01/27 06:44:47;;;;;;;7.50;3.35;;;7.30;72.10;;;;;;5113859;28;20104;-68
2023/01/27 06:47:13;;;;;;;7.10;3.80;;;7.30;72.10;;;;;;5105118;28;20016;-68
2023/01/27 06:49:38;;;;;;;7.73;3.53;;;7.30;72.20;;;;;;5093866;28;20131;-68
2023/01/27 06:52:04;;;;;;;7.67;3.50;;;7.20;72.10;;;;;;5110836;27;20050;-68
2023/01/27 06:54:30;;;;;;;7.67;3.97;;;7.30;72.20;;;;;;5097727;28;20035;-69
2023/01/27 06:56:55;;;;;;;6.77;3.27;;;7.30;72.20;;;;;;5112059;28;20035;-69
2023/01/27 06:59:21;;;;;;;7.87;3.30;;;7.30;72.20;;;;;;5079153;28;20081;-68
2023/01/27 07:01:47;;;;;;;7.30;3.30;;;7.30;72.20;;;;;;5104185;28;20028;-68
2023/01/27 07:04:13;;;;;;;8.47;3.50;;;7.30;72.10;;;;;;5115201;28;20046;-69
2023/01/27 07:06:39;;;;;;;8.37;3.37;;;7.40;72.00;;;;;;5108049;28;20043;-70
2023/01/27 07:09:05;;;;;;;7.37;3.33;;;7.40;72.00;;;;;;5113013;28;20448;-70
2023/01/27 07:11:30;;;;;;;7.93;3.57;;;7.40;71.90;;;;;;5113214;28;20038;-69
2023/01/27 07:13:56;;;;;;;6.70;3.20;;;7.40;71.90;;;;;;5096477;28;20505;-68
2023/01/27 07:16:22;;;;;;;7.77;3.60;;;7.30;71.80;;;;;;5102761;28;20468;-67
2023/01/27 07:18:48;;;;;;;7.40;3.37;;;7.30;71.90;;;;;;5110623;28;20080;-67
2023/01/27 07:21:13;;;;;;;7.17;3.73;;;7.20;71.90;;;;;;5096336;28;20028;-68
2023/01/27 07:23:39;;;;;;;8.10;3.88;;;7.20;71.90;;;;;;5107333;28;20024;-65
2023/01/27 07:26:05;;;;;;;6.43;3.05;;;7.20;72.00;;;;;;5109595;28;20118;-65
2023/01/27 07:28:30;;;;;;;7.63;3.57;;;7.10;72.00;;;;;;5110759;28;20059;-67
2023/01/27 07:31:00;;;;;;;7.53;3.27;;;7.10;72.00;;;;;;5112890;28;20031;-67
2023/01/27 07:33:26;;;;;;;7.63;3.50;;;7.10;72.00;;;;;;5106617;28;20019;-68
2023/01/27 07:35:51;;;;;;;6.07;3.15;;;7.10;72.00;;;;;;5107110;28;20023;-67
2023/01/27 07:38:17;;;;;;;7.70;3.35;;;7.00;71.90;;;;;;5111887;28;20348;-66
2023/01/27 07:40:43;;;;;;;6.90;2.93;;;7.00;71.90;;;;;;5103809;28;20421;-66
2023/01/27 07:43:10;;;;;;;6.43;3.40;;;7.00;71.90;;;;;;5094963;28;20019;-68
2023/01/27 07:45:38;;;;;;;8.67;3.43;;;7.00;71.90;;;;;;5113329;28;20040;-67
2023/01/27 07:48:07;;;;;;;6.00;3.08;;;7.00;71.90;;;;;;5107911;28;20105;-68
2023/01/27 07:50:37;;;;;;;6.07;3.03;;;7.00;71.90;;;;;;5109786;28;20069;-67
2023/01/27 07:53:04;;;;;;;6.53;3.23;;;7.00;71.80;;;;;;5096817;28;20420;-67
2023/01/27 07:55:32;;;;;;;6.20;2.93;;;7.00;71.80;;;;;;5098625;28;20072;-67
2023/01/27 07:57:57;;;;;;;5.73;2.60;;;7.00;71.80;;;;;;5099493;28;20024;-67
2023/01/27 08:00:24;;;;;;;7.10;2.93;;;7.00;71.80;;;;;;5112443;28;20031;-67
2023/01/27 08:02:51;;;;;;;5.93;2.97;;;7.00;71.80;;;;;;5100174;28;20062;-68
2023/01/27 08:05:17;;;;;;;5.53;2.90;;;7.00;71.80;;;;;;5110776;28;20035;-68
2023/01/27 08:07:42;;;;;;;6.23;3.30;;;7.00;71.70;;;;;;5101805;28;20467;-67
2023/01/27 08:10:09;;;;;;;5.82;2.88;;;7.00;71.60;;;;;;5112618;28;20111;-67
2023/01/27 08:12:35;;;;;;;6.13;2.57;;;7.00;71.60;;;;;;5111200;28;20436;-67
2023/01/27 08:15:01;;;;;;;5.40;3.00;;;7.10;71.50;;;;;;5111972;28;20054;-67
2023/01/27 08:17:26;;;;;;;6.30;3.10;;;7.10;71.50;;;;;;5114051;28;20023;-67
2023/01/27 08:19:52;;;;;;;7.03;3.27;;;7.10;71.40;;;;;;5102754;28;20381;-67
2023/01/27 08:22:21;;;;;;;5.30;2.87;;;7.10;71.30;;;;;;5100391;28;20042;-67
2023/01/27 08:24:48;;;;;;;5.53;2.43;;;7.10;71.20;;;;;;5109469;28;20035;-68
2023/01/27 08:27:14;;;;;;;7.03;3.08;;;7.20;71.20;;;;;;5110548;28;20034;-67
2023/01/27 08:29:40;;;;;;;6.47;2.60;;;7.20;71.10;;;;;;5110687;28;20020;-66
2023/01/27 08:32:06;;;;;;;5.17;2.30;;;7.20;71.10;;;;;;5112104;28;20361;-67
2023/01/27 08:34:32;;;;;;;6.33;2.97;;;7.20;71.10;;;;;;5103385;28;20356;-66
2023/01/27 08:36:58;;;;;;;5.63;2.30;;;7.20;71.00;;;;;;5095351;28;20460;-66
2023/01/27 08:39:23;;;;;;;5.37;2.60;;;7.20;70.90;;;;;;5100481;28;20028;-67
2023/01/27 08:41:49;;;;;;;6.57;2.97;;;7.20;70.90;;;;;;5108849;28;20028;-67
2023/01/27 08:44:15;;;;;;;5.87;2.53;;;7.20;70.90;;;;;;5093206;28;20418;-67
2023/01/27 08:46:41;;;;;;;5.10;2.33;;;7.20;70.90;;;;;;5109853;28;20024;-67
2023/01/27 08:49:06;;;;;;;7.53;2.70;;;7.20;70.80;;;;;;5110129;28;20107;-67
2023/01/27 08:51:32;;;;;;;5.70;2.80;;;7.20;70.80;;;;;;5113253;28;20050;-67
2023/01/27 08:53:58;;;;;;;5.05;2.28;;;7.20;70.70;;;;;;5117641;28;20055;-67
2023/01/27 08:56:24;;;;;;;5.60;2.70;;;7.20;70.70;;;;;;5117919;28;20088;-67
2023/01/27 08:58:51;;;;;;;5.53;2.50;;;7.20;70.70;;;;;;5117676;28;20047;-67
2023/01/27 09:01:18;;;;;;;5.18;2.60;;;7.20;70.70;;;;;;5116279;28;20055;-67
2023/01/27 09:03:43;;;;;;;5.70;2.53;;;7.20;70.70;;;;;;5117586;28;20051;-67
2023/01/27 09:06:11;;;;;;;4.97;2.33;;;7.20;70.70;;;;;;5116342;28;20070;-67
2023/01/27 09:08:37;;;;;;;5.83;2.70;;;7.20;70.70;;;;;;5117546;28;20043;-67
2023/01/27 09:11:16;;;;;;;6.30;2.65;;;7.20;70.70;;;;;;5114991;28;20024;-67
2023/01/27 09:13:44;;;;;;;6.07;2.83;;;7.20;70.70;;;;;;5117586;28;20446;-67
2023/01/27 09:16:09;;;;;;;6.93;2.60;;;7.20;70.80;;;;;;5116524;28;20032;-67
2023/01/27 09:18:35;;;;;;;6.93;2.97;;;7.20;70.80;;;;;;5117272;28;20414;-67
2023/01/27 09:21:05;;;;;;;6.30;3.10;;;7.10;70.70;;;;;;5111457;28;20110;-67
2023/01/27 09:23:34;;;;;;;6.57;3.00;;;7.20;70.80;;;;;;5112934;28;20055;-67
2023/01/27 09:26:00;;;;;;;5.57;2.60;;;7.10;70.80;;;;;;5114140;28;20055;-66
2023/01/27 09:28:26;;;;;;;6.20;2.73;;;7.20;70.80;;;;;;5116483;28;20070;-66
2023/01/27 09:30:56;;;;;;;6.25;2.60;;;7.20;70.80;;;;;;5112420;28;20068;-67
2023/01/27 09:33:24;;;;;;;5.47;2.67;;;7.20;70.80;;;;;;5115479;28;20389;-67
2023/01/27 09:36:05;;;;;;;6.35;2.38;;;7.20;70.80;;;;;;5099766;28;20100;-67
2023/01/27 09:38:36;;;;;;;5.82;2.70;;;7.20;70.80;;;;;;5116769;28;20080;-65
2023/01/27 09:41:18;;;;;;;5.87;2.70;;;7.20;70.90;;;;;;5113005;28;20591;-67
2023/01/27 09:43:50;;;;;;;6.28;2.63;;;7.20;70.90;;;;;;5111968;28;20032;-66
2023/01/27 09:46:49;;;;;;;5.70;2.70;;;7.20;70.80;;;;;;5096341;28;20032;-68
2023/01/27 09:49:52;;;;;;;7.30;3.07;;;7.20;70.70;;;;;;5078405;28;20024;-66
2023/01/27 09:52:24;;;;;;;5.87;2.70;;;7.20;70.80;;;;;;5091809;28;20456;-66
2023/01/27 09:54:53;;;;;;;;;;;7.20;70.80;;;;;;5107604;28;20498;-66
2023/01/27 09:57:27;;;;;;;6.10;2.80;;;7.20;70.80;;;;;;5114645;28;19914;-65
2023/01/27 10:00:19;;;;;;;5.77;2.63;;;7.20;70.90;;;;;;5115551;28;20032;-65
2023/01/27 10:03:13;;;;;;;6.75;2.78;;;7.20;70.80;;;;;;5112510;28;20039;-65
2023/01/27 10:06:07;;;;;;;5.40;2.50;;;7.20;70.80;;;;;;5095359;28;20028;-65
2023/01/27 10:08:50;;;;;;;5.00;2.43;;;7.20;70.80;;;;;;5114292;28;20023;-66
2023/01/27 10:11:44;;;;;;;6.27;3.00;;;7.30;70.90;;;;;;5115225;28;20126;-66
2023/01/27 10:14:24;;;;;;;5.73;2.80;;;7.30;70.80;;;;;;5101900;28;20028;-65
2023/01/27 10:16:56;;;;;;;6.43;2.87;;;7.30;70.80;;;;;;5102497;28;20071;-66
2023/01/27 10:19:41;;;;;;;;;;;7.30;70.80;;;;;;5114671;28;20028;-67
2023/01/27 10:22:21;;;;;;;6.23;2.60;;;7.30;70.80;;;;;;5088625;28;19958;-66
2023/01/27 10:25:43;;;;;;;6.40;3.00;;;7.30;70.90;;;;;;5113642;28;20039;-67
2023/01/27 10:28:14;;;;;;;5.90;2.95;;;7.30;70.80;;;;;;5049105;28;20092;-66
2023/01/27 10:30:57;;;;;;;5.22;2.70;;;7.30;70.80;;;;;;5091575;28;20127;-67
2023/01/27 10:33:41;;;;;;;5.97;2.80;;;7.30;70.80;;;;;;5100738;28;20510;-66
2023/01/27 10:36:31;;;;;;;6.03;3.08;;;7.30;70.80;;;;;;5094520;28;20051;-67
2023/01/27 10:39:27;;;;;;;5.82;3.00;;;7.30;70.80;;;;;;5086701;28;20314;-65
2023/01/27 10:42:20;;;;;;;6.07;3.10;;;7.30;70.80;;;;;;5115594;28;20423;-67
2023/01/27 10:44:52;;;;;;;7.13;3.30;;;7.30;70.70;;;;;;5113671;28;20163;-66
2023/01/27 10:47:37;;;;;;;5.93;2.97;;;7.40;70.80;;;;;;5114573;28;20092;-68
2023/01/27 10:50:12;;;;;;;6.53;3.30;;;7.40;70.70;;;;;;5103692;28;20352;-68
2023/01/27 10:52:46;;;;;;;5.40;2.80;;;7.40;70.70;;;;;;5114707;28;20461;-67
2023/01/27 10:55:20;;;;;;;6.83;2.90;;;7.40;70.70;;;;;;5096902;28;20456;-67
2023/01/27 10:58:03;;;;;;;6.03;2.90;;;7.50;70.70;;;;;;5111566;28;20031;-67
2023/01/27 11:00:41;;;;;;;5.90;3.00;;;7.50;70.60;;;;;;5112066;28;20490;-67
2023/01/27 11:03:26;;;;;;;7.03;3.03;;;7.50;70.60;;;;;;5111559;28;20051;-67
2023/01/27 11:05:56;;;;;;;7.13;3.00;;;7.50;70.60;;;;;;5112689;28;20031;-67
2023/01/27 11:08:27;;;;;;;5.63;2.73;;;7.50;70.50;;;;;;5112076;27;20096;-68
2023/01/27 11:13:49;;;;;;;4.70;2.43;;;7.60;70.40;;;;;;5093693;28;20285;-66
2023/01/27 11:16:18;;;;;;;6.17;3.10;;;7.60;70.30;;;;;;5112234;28;20031;-66
2023/01/27 11:18:56;;;;;;;5.90;2.93;;;7.60;70.20;;;;;;5104410;28;20028;-66
2023/01/27 11:21:26;;;;;;;6.13;3.00;;;7.70;69.90;;;;;;5095580;28;20027;-65
2023/01/27 11:23:55;;;;;;;7.32;3.05;;;7.80;69.80;;;;;;5108357;28;20066;-67
2023/01/27 11:26:45;;;;;;;6.50;3.17;;;7.80;69.80;;;;;;5106389;28;20028;-67
2023/01/27 11:29:17;;;;;;;6.32;3.00;;;7.90;69.60;;;;;;5095961;27;20024;-67
2023/01/27 11:31:55;;;;;;;;;;;7.90;69.60;;;;;;5102664;28;20453;-67
2023/01/27 11:35:00;;;;;;;6.30;3.10;;;7.90;69.60;;;;;;5099132;27;19908;-67
2023/01/27 11:37:31;;;;;;;6.57;3.00;;;7.90;69.60;;;;;;5064761;28;20044;-66
2023/01/27 11:39:57;;;;;;;6.17;3.10;;;7.90;69.60;;;;;;5101384;28;20055;-66
2023/01/27 11:42:28;;;;;;;6.70;3.35;;;7.90;69.50;;;;;;5106723;28;20269;-66
2023/01/27 11:44:56;;;;;;;5.87;3.17;;;7.90;69.60;;;;;;5110777;28;20036;-67
2023/01/27 11:47:26;;;;;;;6.68;3.20;;;7.90;70.10;;;;;;5106102;28;20028;-66
2023/01/27 11:49:53;;;;;;;6.10;3.05;;;7.90;69.40;;;;;;5109959;28;20019;-66
2023/01/27 11:52:21;;;;;;;6.40;3.10;;;7.90;69.40;;;;;;5095328;28;20028;-66
2023/01/27 11:55:19;;;;;;;6.83;2.93;;;8.00;69.40;;;;;;5095694;28;20055;-66
2023/01/27 11:57:55;;;;;;;6.20;3.07;;;8.00;69.30;;;;;;5095008;28;20127;-66
2023/01/27 12:00:25;;;;;;;6.43;3.00;;;8.00;69.20;;;;;;5092125;28;20115;-67
2023/01/27 12:03:11;;;;;;;6.43;2.80;;;8.00;69.20;;;;;;5102187;28;20479;-66
2023/01/27 12:05:44;;;;;;;6.82;3.08;;;8.00;69.10;;;;;;5095135;28;20039;-66
2023/01/27 12:08:09;;;;;;;6.03;3.08;;;8.00;69.00;;;;;;5094758;28;20046;-67
2023/01/27 12:10:40;;;;;;;8.95;2.88;;;8.00;69.00;;;;;;5111433;28;20107;-67
2023/01/27 12:13:14;;;;;;;5.53;2.78;;;8.10;69.00;;;;;;5100266;28;20084;-67
2023/01/27 12:15:51;;;;;;;6.30;2.78;;;8.10;68.90;;;;;;5078829;28;20032;-66
2023/01/27 12:18:17;;;;;;;6.10;3.25;;;8.20;68.90;;;;;;5099263;28;20050;-67
2023/01/27 12:20:47;;;;;;;6.47;3.13;;;8.20;68.80;;;;;;5113243;28;20023;-67
2023/01/27 12:23:45;;;;;;;6.80;3.05;;;8.20;68.80;;;;;;5098934;28;20028;-66
2023/01/27 12:26:11;;;;;;;7.28;3.50;;;8.20;68.70;;;;;;5111343;28;20380;-67
2023/01/27 12:28:49;;;;;;;6.35;3.00;;;8.20;68.70;;;;;;5116487;28;20444;-67
2023/01/27 12:31:24;;;;;;;5.90;2.90;;;8.20;68.70;;;;;;5099038;28;20031;-67
2023/01/27 12:34:12;;;;;;;5.85;3.10;;;8.30;68.60;;;;;;5116322;28;20503;-67
2023/01/27 12:36:43;;;;;;;6.13;3.00;;;8.40;68.50;;;;;;5117508;28;20042;-66
2023/01/27 12:39:39;;;;;;;7.90;2.80;;;8.40;68.30;;;;;;5116175;28;20027;-67
2023/01/27 12:42:05;;;;;;;6.32;3.08;;;8.40;68.30;;;;;;5099903;28;20495;-66
2023/01/27 12:44:42;;;;;;;6.43;2.83;;;8.40;68.30;;;;;;5113234;28;20530;-67
2023/01/27 12:47:26;;;;;;;6.60;3.17;;;8.40;68.20;;;;;;5125820;27;20024;-67
2023/01/27 12:50:22;;;;;;;5.72;2.88;;;8.30;68.30;;;;;;5115819;28;20055;-67
2023/01/27 12:53:12;;;;;;;5.82;3.03;;;8.30;68.30;;;;;;5115473;28;20047;-67
2023/01/27 12:55:46;;;;;;;7.27;3.80;;;8.30;68.40;;;;;;5116421;28;20122;-67
2023/01/27 12:58:30;;;;;;;7.43;3.65;;;8.20;68.40;;;;;;5117344;28;20323;-67
2023/01/27 13:00:58;;;;;;;6.50;3.13;;;8.20;68.40;;;;;;5116372;27;20020;-67
2023/01/27 13:03:25;;;;;;;6.57;3.38;;;8.20;68.50;;;;;;5094472;28;20031;-67
2023/01/27 13:05:57;;;;;;;5.97;3.17;;;8.20;68.50;;;;;;5108399;28;20042;-67
2023/01/27 13:08:26;;;;;;;6.70;3.42;;;8.10;68.50;;;;;;5115524;28;20020;-66
2023/01/27 13:11:00;;;;;;;8.10;3.35;;;8.10;68.50;;;;;;5127563;27;20412;-66
2023/01/27 13:13:28;;;;;;;6.35;3.30;;;8.10;68.40;;;;;;5115652;28;20020;-68
2023/01/27 13:15:59;;;;;;;6.93;3.42;;;8.10;68.40;;;;;;5115974;28;20020;-67
2023/01/27 13:18:33;;;;;;;6.70;3.20;;;8.10;68.40;;;;;;5115507;28;20023;-67
2023/01/27 13:21:14;;;;;;;7.30;3.50;;;8.10;68.40;;;;;;5113598;28;20146;-67
2023/01/27 13:23:40;;;;;;;8.32;3.30;;;8.10;68.30;;;;;;5104952;27;20073;-69
2023/01/27 13:26:14;;;;;;;6.25;2.95;;;8.00;68.20;;;;;;5105612;27;20059;-68
2023/01/27 13:29:01;;;;;;;6.20;3.10;;;8.00;68.20;;;;;;5102928;27;20031;-68
2023/01/27 13:31:45;;;;;;;7.20;3.40;;;8.00;68.20;;;;;;5085798;28;20391;-68
2023/01/27 13:34:33;;;;;;;7.30;3.63;;;8.00;68.10;;;;;;5112345;27;20076;-68
2023/01/27 13:37:19;;;;;;;6.20;3.50;;;8.00;68.20;;;;;;5109196;28;20051;-63
2023/01/27 13:40:26;;;;;;;5.53;2.80;;;8.00;68.10;;;;;;5094784;28;20093;-65
2023/01/27 13:43:19;;;;;;;6.72;3.47;;;7.90;68.10;;;;;;5110064;28;20307;-64
2023/01/27 13:46:27;;;;;;;6.55;3.30;;;7.90;68.20;;;;;;5104647;28;20435;-64